Sao Miguel do Aleixo, Brazil
Current Conditions -  °F | °C
As of 3:00 PM on Monday 20 Oct 2014 (Local Time) from SBAR Reporting Station
Scattered Clouds Scattered Clouds  
Wind Chill: 82°   Ceiling: Unl
Heat Index: 85°   Visibility: 6mi
Dew Point: 68°   Wind: 17mph
Humidity: 62%   Direction: 110°ESE
Pressure: 29.85"   Gusts: NA
Location:  10.39°S, 37.38°W
Report Text: SBAR 201800Z 11015KT 9999 SCT017 28/20 Q1011
Loading
Personal Weather Stations






























Interactive Weather Map
Tropical Storm Tracking
New forecast layout! Learn more

10-Day Weather Forecast

Advertisements
Track Severe Weather on mobile